Time;durP1;ratioP1;P1;durP2;ratioP2;P2;SDS_P1;SDS_P2;PMS_P1;PMS_P2;Temp;Humidity;BMP_temperature;BMP_pressure;BME280_temperature;BME280_humidity;BME280_pressure;Samples;Min_cycle;Max_cycle;Signal;HPM_P1;HPM_P2
2022/09/04 00:01:17;;;;;;;3.25;0.40;;;17.60;98.60;;;;;;5089340;28;20093;-67
2022/09/04 00:04:17;;;;;;;3.28;0.50;;;17.60;98.00;;;;;;5089809;28;21021;-68
2022/09/04 00:07:13;;;;;;;1.35;0.40;;;17.50;99.20;;;;;;5081594;28;20097;-67
2022/09/04 00:10:13;;;;;;;4.47;0.50;;;17.50;99.10;;;;;;5083293;28;20056;-68
2022/09/04 00:13:13;;;;;;;5.80;0.50;;;17.50;98.40;;;;;;5071380;28;20063;-68
2022/09/04 00:15:59;;;;;;;2.65;0.55;;;17.40;98.50;;;;;;5067794;28;20482;-68
2022/09/04 00:18:31;;;;;;;2.70;0.30;;;17.50;98.40;;;;;;5070425;28;20088;-67
2022/09/04 00:21:06;;;;;;;4.80;0.57;;;17.40;99.00;;;;;;5069430;28;20056;-68
2022/09/04 00:23:49;;;;;;;1.65;0.40;;;17.40;98.80;;;;;;5068178;28;20051;-67
2022/09/04 00:26:18;;;;;;;;;;;17.40;99.90;;;;;;5069251;28;20052;-67
2022/09/04 00:28:48;;;;;;;3.63;0.57;;;17.40;99.90;;;;;;5069284;28;20250;-67
2022/09/04 00:31:24;;;;;;;1.52;0.30;;;17.30;99.90;;;;;;5068247;28;20044;-67
2022/09/04 00:34:23;;;;;;;1.65;0.50;;;17.30;99.90;;;;;;5069570;28;20137;-68
2022/09/04 00:36:54;;;;;;;1.88;0.30;;;17.30;99.90;;;;;;5087408;28;20036;-67
2022/09/04 00:39:34;;;;;;;1.80;0.40;;;17.30;99.90;;;;;;5088442;28;20405;-69
2022/09/04 00:42:08;;;;;;;1.50;0.30;;;17.20;99.90;;;;;;5069128;28;20338;-69
2022/09/04 00:45:07;;;;;;;2.38;0.43;;;17.20;99.90;;;;;;5069305;28;20048;-67
2022/09/04 00:47:50;;;;;;;3.40;0.40;;;17.20;99.90;;;;;;5069691;28;20048;-68
2022/09/04 00:50:24;;;;;;;2.88;0.45;;;17.20;99.90;;;;;;5071348;28;20070;-68
2022/09/04 00:53:09;;;;;;;4.93;0.40;;;17.10;99.90;;;;;;5071313;28;20109;-68
2022/09/04 00:55:58;;;;;;;1.77;0.40;;;17.10;99.90;;;;;;5070509;28;20359;-69
2022/09/04 00:58:42;;;;;;;2.83;0.50;;;17.10;99.90;;;;;;5069742;28;20783;-68
2022/09/04 01:01:14;;;;;;;3.05;0.30;;;17.10;99.50;;;;;;5068097;28;20602;-67
2022/09/04 01:04:25;;;;;;;3.38;0.40;;;17.10;99.90;;;;;;5070201;28;20114;-70
2022/09/04 01:07:26;;;;;;;3.63;0.50;;;17.10;99.90;;;;;;5073989;28;20051;-69
2022/09/04 01:10:15;;;;;;;1.90;0.40;;;17.10;99.90;;;;;;5088844;28;20074;-69
2022/09/04 01:13:07;;;;;;;3.05;0.60;;;17.10;99.90;;;;;;5089464;28;20047;-70
2022/09/04 01:15:59;;;;;;;3.97;0.47;;;17.10;99.90;;;;;;5091219;28;20118;-68
2022/09/04 01:18:43;;;;;;;1.55;0.40;;;17.10;99.90;;;;;;5079170;28;20056;-68
2022/09/04 01:21:17;;;;;;;3.88;0.47;;;17.00;99.90;;;;;;5090651;28;20036;-67
2022/09/04 01:23:51;;;;;;;3.08;0.60;;;17.00;99.90;;;;;;5089078;28;20139;-70
2022/09/04 01:26:32;;;;;;;2.22;0.40;;;17.00;99.90;;;;;;5087930;28;20511;-69
2022/09/04 01:29:10;;;;;;;2.75;0.35;;;17.00;99.90;;;;;;5088256;28;20063;-66
2022/09/04 01:31:42;;;;;;;3.03;0.40;;;17.00;99.90;;;;;;5088993;28;20044;-68
2022/09/04 01:34:35;;;;;;;3.60;0.43;;;17.00;99.90;;;;;;5086895;28;20652;-70
2022/09/04 01:37:11;;;;;;;;;;;17.00;99.90;;;;;;5087800;28;20055;-68
2022/09/04 01:39:38;;;;;;;1.88;0.30;;;17.00;99.90;;;;;;5078695;28;20339;-67
2022/09/04 01:42:22;;;;;;;3.22;0.60;;;17.00;99.90;;;;;;5070050;28;20050;-70
2022/09/04 01:44:48;;;;;;;1.60;0.40;;;17.00;99.90;;;;;;5071788;28;20511;-68
2022/09/04 01:47:24;;;;;;;2.40;0.47;;;16.90;99.90;;;;;;5071790;28;20044;-69
2022/09/04 01:50:01;;;;;;;4.35;0.50;;;16.90;99.90;;;;;;5070065;28;20464;-67
2022/09/04 01:52:51;;;;;;;3.08;0.40;;;16.90;99.90;;;;;;5069205;28;20092;-68
2022/09/04 01:55:34;;;;;;;2.08;0.40;;;16.90;99.90;;;;;;5069662;28;20663;-68
2022/09/04 01:58:10;;;;;;;1.58;0.40;;;16.80;99.90;;;;;;5067567;28;20055;-69
2022/09/04 02:01:17;;;;;;;0.60;0.30;;;16.80;99.90;;;;;;5067386;28;20381;-68
2022/09/04 02:03:45;;;;;;;3.13;0.40;;;16.70;99.90;;;;;;5061515;28;20702;-68
2022/09/04 02:06:41;;;;;;;4.57;0.60;;;16.70;99.90;;;;;;5068853;28;20054;-70
2022/09/04 02:09:28;;;;;;;1.33;0.50;;;16.60;99.90;;;;;;5072379;28;20060;-66
2022/09/04 02:12:14;;;;;;;1.17;0.45;;;16.60;99.90;;;;;;5072777;28;20047;-68
2022/09/04 02:15:21;;;;;;;1.83;0.50;;;16.60;99.90;;;;;;5070726;28;20581;-70
2022/09/04 02:18:13;;;;;;;2.30;0.60;;;16.60;99.90;;;;;;5062961;28;20060;-66
2022/09/04 02:20:48;;;;;;;2.10;0.45;;;16.50;99.90;;;;;;5070364;28;20127;-68
2022/09/04 02:23:20;;;;;;;1.85;0.50;;;16.50;99.90;;;;;;5071920;28;20491;-67
2022/09/04 02:26:04;;;;;;;1.20;0.70;;;16.50;99.90;;;;;;5076812;28;20549;-68
2022/09/04 02:28:51;;;;;;;1.30;0.30;;;16.40;99.90;;;;;;5072040;28;20193;-67
2022/09/04 02:31:43;;;;;;;3.10;0.60;;;16.50;99.90;;;;;;5071949;28;20101;-66
2022/09/04 02:34:40;;;;;;;1.65;0.50;;;16.40;99.90;;;;;;5071434;28;20630;-67
2022/09/04 02:37:54;;;;;;;1.50;0.50;;;16.40;99.90;;;;;;5049909;28;20048;-67
2022/09/04 02:40:29;;;;;;;1.75;0.52;;;16.40;99.90;;;;;;5069325;28;20652;-67
2022/09/04 02:43:16;;;;;;;2.50;0.50;;;16.40;99.90;;;;;;5071562;28;20330;-68
2022/09/04 02:46:23;;;;;;;2.28;0.50;;;16.30;99.90;;;;;;5073018;28;20338;-70
2022/09/04 02:49:12;;;;;;;1.25;0.40;;;16.30;99.90;;;;;;5062082;28;20059;-67
2022/09/04 02:52:12;;;;;;;1.60;0.40;;;16.30;99.90;;;;;;5071617;28;20079;-67
2022/09/04 02:54:58;;;;;;;3.53;0.50;;;16.20;99.90;;;;;;5070907;28;20205;-68
2022/09/04 02:57:53;;;;;;;1.35;0.40;;;16.20;99.90;;;;;;5071046;28;20044;-70
2022/09/04 03:00:26;;;;;;;1.33;0.52;;;16.20;99.90;;;;;;5070788;28;20064;-68
2022/09/04 03:03:00;;;;;;;3.35;0.60;;;16.20;99.90;;;;;;5071290;28;20514;-68
2022/09/04 03:05:31;;;;;;;1.42;0.47;;;16.10;99.90;;;;;;5079571;28;20040;-67
2022/09/04 03:08:18;;;;;;;2.55;0.50;;;16.20;99.90;;;;;;5089084;28;20263;-70
2022/09/04 03:10:50;;;;;;;1.02;0.40;;;16.20;99.90;;;;;;5090667;28;20047;-67
2022/09/04 03:13:46;;;;;;;3.35;0.80;;;16.20;99.90;;;;;;5091230;28;20690;-69
2022/09/04 03:16:24;;;;;;;1.58;0.40;;;16.20;99.90;;;;;;5093157;28;20146;-68
2022/09/04 03:19:01;;;;;;;1.13;0.60;;;16.10;99.90;;;;;;5092751;28;20713;-67
2022/09/04 03:21:42;;;;;;;4.45;0.50;;;16.10;99.90;;;;;;5093092;28;20490;-68
2022/09/04 03:24:19;;;;;;;2.38;0.60;;;16.10;99.90;;;;;;5091582;28;20058;-69
2022/09/04 03:26:55;;;;;;;2.55;0.45;;;16.10;99.90;;;;;;5092762;28;20131;-68
2022/09/04 03:29:27;;;;;;;4.25;0.57;;;16.00;99.90;;;;;;5092540;28;20282;-69
2022/09/04 03:32:31;;;;;;;2.97;0.50;;;16.00;99.90;;;;;;5083162;28;20105;-67
2022/09/04 03:35:12;;;;;;;1.83;0.40;;;16.00;99.90;;;;;;5084820;28;20051;-70
2022/09/04 03:38:17;;;;;;;2.00;0.40;;;15.90;99.90;;;;;;5071661;28;20058;-70
2022/09/04 03:41:03;;;;;;;1.25;0.43;;;15.90;99.90;;;;;;5069979;28;20559;-67
2022/09/04 03:44:04;;;;;;;2.03;0.35;;;15.90;99.90;;;;;;5068418;28;20052;-68
2022/09/04 03:46:29;;;;;;;2.55;0.50;;;16.00;99.90;;;;;;5057278;28;20131;-67
2022/09/04 03:49:18;;;;;;;1.88;0.30;;;16.00;99.90;;;;;;5070350;28;20116;-67
2022/09/04 03:51:50;;;;;;;3.92;0.70;;;15.90;99.90;;;;;;5073575;28;20043;-69
2022/09/04 03:54:34;;;;;;;2.95;0.60;;;15.90;99.90;;;;;;5089315;28;20541;-68
2022/09/04 03:57:18;;;;;;;2.90;0.68;;;15.90;99.90;;;;;;5089382;28;20589;-67
2022/09/04 03:59:52;;;;;;;2.83;0.57;;;15.80;99.90;;;;;;5088811;28;20126;-68
2022/09/04 04:02:25;;;;;;;4.65;0.60;;;15.80;99.90;;;;;;5089638;28;20204;-68
2022/09/04 04:05:11;;;;;;;4.15;0.47;;;15.70;99.90;;;;;;5089432;28;20127;-69
2022/09/04 04:08:02;;;;;;;2.45;0.65;;;15.70;99.90;;;;;;5089233;28;20575;-68
2022/09/04 04:11:00;;;;;;;1.75;0.55;;;15.70;99.90;;;;;;5087798;28;20188;-69
2022/09/04 04:13:25;;;;;;;3.00;0.60;;;15.70;99.90;;;;;;5078968;28;20052;-68
2022/09/04 04:16:29;;;;;;;2.00;0.45;;;15.70;99.90;;;;;;5087980;28;20045;-70
2022/09/04 04:19:09;;;;;;;;;;;15.70;99.90;;;;;;5069516;28;20718;-70
2022/09/04 04:22:02;;;;;;;2.70;0.50;;;15.70;99.90;;;;;;5075912;28;20718;-68
2022/09/04 04:25:00;;;;;;;2.55;0.88;;;15.60;99.90;;;;;;5076402;28;20895;-67
2022/09/04 04:27:34;;;;;;;2.42;0.45;;;15.60;99.90;;;;;;5069142;28;20048;-70
2022/09/04 04:30:05;;;;;;;1.73;0.50;;;15.60;99.90;;;;;;5069146;28;20238;-68
2022/09/04 04:32:40;;;;;;;4.00;0.70;;;15.60;99.90;;;;;;5086895;28;20409;-68
2022/09/04 04:35:15;;;;;;;2.60;0.55;;;15.60;99.90;;;;;;5087529;28;20047;-69
2022/09/04 04:37:55;;;;;;;1.13;0.47;;;15.50;99.90;;;;;;5088409;28;20525;-67
2022/09/04 04:40:31;;;;;;;3.95;0.52;;;15.50;99.90;;;;;;5082919;28;20058;-68
2022/09/04 04:43:22;;;;;;;4.57;0.70;;;15.40;99.90;;;;;;5069338;28;20434;-68
2022/09/04 04:45:51;;;;;;;2.92;0.70;;;15.40;99.90;;;;;;5069274;28;20206;-68
2022/09/04 04:48:54;;;;;;;4.30;0.70;;;15.40;99.90;;;;;;5069199;28;20136;-69
2022/09/04 04:51:40;;;;;;;2.78;0.40;;;15.30;99.90;;;;;;5082107;28;20055;-70
2022/09/04 04:54:06;;;;;;;3.10;0.90;;;15.30;99.90;;;;;;5088619;28;20450;-68
2022/09/04 04:56:44;;;;;;;1.83;0.50;;;15.20;99.90;;;;;;5080849;28;20050;-68
2022/09/04 04:59:26;;;;;;;2.95;0.55;;;15.30;99.90;;;;;;5069053;28;20056;-68
2022/09/04 05:02:07;;;;;;;1.25;0.43;;;15.30;99.90;;;;;;5069001;28;20563;-66
2022/09/04 05:05:02;;;;;;;2.13;0.65;;;15.30;99.90;;;;;;5068804;28;20064;-69
2022/09/04 05:07:41;;;;;;;1.45;0.45;;;15.30;99.90;;;;;;5087315;28;20047;-68
2022/09/04 05:10:33;;;;;;;4.13;0.80;;;15.30;99.90;;;;;;5081993;28;20294;-68
2022/09/04 05:13:18;;;;;;;2.47;0.50;;;15.20;99.90;;;;;;5078282;28;20062;-68
2022/09/04 05:15:58;;;;;;;4.10;0.60;;;15.30;99.90;;;;;;5077543;28;20055;-68
2022/09/04 05:18:42;;;;;;;2.10;0.50;;;15.20;99.90;;;;;;5069316;28;20052;-68
2022/09/04 05:21:28;;;;;;;5.85;0.85;;;15.20;99.90;;;;;;5069741;28;20053;-69
2022/09/04 05:24:12;;;;;;;1.77;0.55;;;15.30;99.90;;;;;;5069222;28;20123;-67
2022/09/04 05:26:52;;;;;;;3.65;0.60;;;15.20;99.90;;;;;;5069182;28;20117;-67
2022/09/04 05:29:17;;;;;;;3.40;0.60;;;15.20;99.90;;;;;;5087743;28;20123;-68
2022/09/04 05:31:58;;;;;;;2.90;0.65;;;15.20;99.90;;;;;;5069542;28;20100;-67
2022/09/04 05:35:01;;;;;;;2.65;0.60;;;15.20;99.90;;;;;;5069058;28;21227;-66
2022/09/04 05:37:31;;;;;;;2.28;0.70;;;15.30;99.90;;;;;;5069582;28;20731;-70
2022/09/04 05:40:14;;;;;;;1.35;0.60;;;15.30;99.90;;;;;;5081056;28;20235;-68
2022/09/04 05:43:17;;;;;;;1.83;0.70;;;15.30;99.90;;;;;;5091186;28;20456;-68
2022/09/04 05:45:57;;;;;;;1.55;0.60;;;15.30;99.90;;;;;;5081001;28;20121;-68
2022/09/04 05:48:37;;;;;;;3.28;0.68;;;15.30;99.90;;;;;;5083466;28;20475;-67
2022/09/04 05:51:42;;;;;;;2.40;0.40;;;15.40;99.90;;;;;;5082304;28;20139;-69
2022/09/04 05:54:14;;;;;;;3.88;0.75;;;15.70;99.90;;;;;;5081436;28;20122;-68
2022/09/04 05:57:03;;;;;;;3.00;0.60;;;16.00;99.90;;;;;;5092622;28;20056;-66
2022/09/04 05:59:53;;;;;;;4.32;0.70;;;16.20;99.90;;;;;;5092482;28;20048;-68
2022/09/04 06:02:40;;;;;;;4.43;0.68;;;16.40;99.90;;;;;;5092151;28;20134;-69
2022/09/04 06:05:18;;;;;;;2.13;0.60;;;16.60;99.90;;;;;;5092790;28;20590;-68
2022/09/04 06:07:46;;;;;;;2.85;0.70;;;16.70;99.90;;;;;;5091956;28;20866;-68
2022/09/04 06:10:36;;;;;;;4.03;0.95;;;16.80;99.90;;;;;;5073651;28;20101;-70
2022/09/04 06:13:37;;;;;;;2.60;0.60;;;16.80;99.90;;;;;;5073277;28;20884;-68
2022/09/04 06:16:20;;;;;;;1.52;0.60;;;16.90;99.90;;;;;;5052283;28;20306;-67
2022/09/04 06:19:01;;;;;;;1.25;0.70;;;16.90;99.90;;;;;;5072331;28;20048;-68
2022/09/04 06:21:32;;;;;;;2.58;0.57;;;17.00;99.90;;;;;;5073159;28;20105;-70
2022/09/04 06:24:29;;;;;;;2.97;0.80;;;17.00;99.90;;;;;;5083515;28;20044;-68
2022/09/04 06:27:23;;;;;;;2.75;0.70;;;17.10;99.90;;;;;;5072439;28;20047;-70
2022/09/04 06:30:13;;;;;;;2.53;0.80;;;17.10;99.90;;;;;;5072800;28;20075;-68
2022/09/04 06:32:44;;;;;;;2.90;0.60;;;17.20;99.90;;;;;;5072381;28;20054;-68
2022/09/04 06:35:29;;;;;;;3.05;0.60;;;17.40;99.90;;;;;;5072097;28;20455;-68
2022/09/04 06:38:01;;;;;;;2.90;0.70;;;17.50;99.90;;;;;;5071844;28;20630;-69
2022/09/04 06:40:45;;;;;;;1.73;0.82;;;17.50;99.90;;;;;;5070029;28;20121;-69
2022/09/04 06:43:20;;;;;;;2.72;0.80;;;17.50;99.90;;;;;;5071701;28;20082;-68
2022/09/04 06:45:58;;;;;;;2.05;0.70;;;17.20;99.90;;;;;;5071092;28;20052;-69
2022/09/04 06:48:23;;;;;;;2.75;0.85;;;17.20;99.90;;;;;;5071102;28;20858;-68
2022/09/04 06:51:08;;;;;;;1.58;0.50;;;17.20;99.90;;;;;;5070066;28;20052;-68
2022/09/04 06:53:41;;;;;;;2.38;1.00;;;17.40;99.90;;;;;;5071117;28;20055;-69
2022/09/04 06:56:31;;;;;;;4.28;0.70;;;17.60;99.90;;;;;;5070942;28;20136;-67
2022/09/04 06:59:47;;;;;;;2.53;0.60;;;17.50;99.90;;;;;;5071712;28;20105;-68
2022/09/04 07:02:18;;;;;;;1.65;0.70;;;17.40;99.90;;;;;;5071569;28;20698;-68
2022/09/04 07:05:05;;;;;;;5.20;0.70;;;17.40;99.90;;;;;;5069775;28;20058;-68
2022/09/04 07:07:49;;;;;;;1.85;0.70;;;17.50;99.90;;;;;;5071179;28;20076;-69
2022/09/04 07:10:22;;;;;;;3.88;0.70;;;17.50;99.90;;;;;;5071603;28;20052;-68
2022/09/04 07:13:07;;;;;;;4.65;0.93;;;17.50;99.90;;;;;;5080450;28;20092;-68
2022/09/04 07:15:47;;;;;;;3.65;0.70;;;17.60;99.90;;;;;;5072076;28;20651;-68
2022/09/04 07:18:53;;;;;;;2.45;0.70;;;17.90;99.90;;;;;;5090601;28;20043;-68
2022/09/04 07:21:31;;;;;;;2.25;0.90;;;18.00;99.90;;;;;;5090000;28;20107;-67
2022/09/04 07:24:03;;;;;;;2.28;0.75;;;18.10;99.90;;;;;;5090066;28;20094;-67
2022/09/04 07:26:46;;;;;;;2.88;0.60;;;18.30;99.90;;;;;;5089617;28;20047;-70
2022/09/04 07:29:31;;;;;;;;;;;18.20;99.90;;;;;;5072672;28;20436;-68
2022/09/04 07:32:19;;;;;;;1.60;0.60;;;18.30;99.90;;;;;;5082603;28;19924;-68
2022/09/04 07:35:25;;;;;;;4.07;0.70;;;18.40;99.90;;;;;;5070972;28;20454;-69
2022/09/04 07:38:03;;;;;;;1.50;0.60;;;18.60;99.90;;;;;;5078165;28;20064;-69
2022/09/04 07:40:40;;;;;;;3.67;0.80;;;18.60;99.90;;;;;;5090509;28;20375;-67
2022/09/04 07:43:24;;;;;;;4.47;0.80;;;18.60;99.90;;;;;;5088826;28;20039;-67
2022/09/04 07:46:05;;;;;;;4.00;0.90;;;18.80;99.90;;;;;;5071505;28;20059;-69
2022/09/04 07:49:23;;;;;;;2.83;0.75;;;18.80;99.90;;;;;;5073730;28;20350;-69
2022/09/04 07:52:13;;;;;;;3.35;0.70;;;19.20;99.90;;;;;;5049252;28;20048;-68
2022/09/04 07:54:59;;;;;;;2.80;0.90;;;19.20;99.90;;;;;;5070784;28;20060;-68
2022/09/04 07:57:28;;;;;;;4.72;0.90;;;19.20;99.90;;;;;;5086862;28;20044;-70
2022/09/04 08:00:07;;;;;;;2.97;0.90;;;19.30;99.90;;;;;;5082848;28;20070;-68
2022/09/04 08:02:42;;;;;;;4.00;0.80;;;19.50;99.90;;;;;;5091988;28;20586;-70
2022/09/04 08:05:18;;;;;;;2.13;1.02;;;19.50;99.90;;;;;;5091160;28;20055;-68
2022/09/04 08:08:25;;;;;;;2.55;0.80;;;19.50;99.90;;;;;;5092324;28;20044;-68
2022/09/04 08:10:59;;;;;;;1.88;0.80;;;19.60;98.50;;;;;;5069224;28;20129;-66
2022/09/04 08:13:28;;;;;;;2.30;0.90;;;19.80;97.10;;;;;;5071231;28;20055;-69
2022/09/04 08:16:19;;;;;;;3.38;0.60;;;19.90;96.90;;;;;;5082239;28;20076;-68
2022/09/04 08:19:00;;;;;;;1.88;0.90;;;20.10;95.70;;;;;;5083066;28;20135;-68
2022/09/04 08:21:36;;;;;;;2.10;0.80;;;19.90;97.40;;;;;;5090358;28;20129;-68
2022/09/04 08:24:05;;;;;;;2.80;1.10;;;20.10;96.60;;;;;;5091749;28;20043;-69
2022/09/04 08:26:51;;;;;;;2.10;0.90;;;20.20;96.50;;;;;;5091851;28;20047;-70
2022/09/04 08:29:55;;;;;;;4.00;1.00;;;20.30;96.40;;;;;;5070515;28;20057;-70
2022/09/04 08:32:46;;;;;;;2.22;0.93;;;20.50;95.50;;;;;;5070730;28;20132;-68
2022/09/04 08:35:32;;;;;;;3.70;1.20;;;20.60;95.70;;;;;;5069860;28;20154;-69
2022/09/04 08:38:09;;;;;;;2.17;0.80;;;20.60;96.50;;;;;;5070503;28;20279;-68
2022/09/04 08:40:53;;;;;;;3.08;0.98;;;20.80;96.10;;;;;;5073125;28;20450;-67
2022/09/04 08:44:00;;;;;;;2.53;0.80;;;21.00;95.60;;;;;;5073901;28;20125;-68
2022/09/04 08:47:00;;;;;;;2.55;0.82;;;20.90;95.00;;;;;;5070557;28;20624;-67
2022/09/04 08:49:41;;;;;;;1.85;0.95;;;20.80;95.50;;;;;;5077311;28;20055;-70
2022/09/04 08:52:38;;;;;;;4.93;1.10;;;20.80;95.40;;;;;;5088513;27;20051;-69
2022/09/04 08:55:29;;;;;;;4.93;0.82;;;20.70;96.90;;;;;;5088675;28;20332;-69
2022/09/04 08:58:29;;;;;;;3.08;1.00;;;21.00;96.20;;;;;;5073432;28;20182;-70
2022/09/04 09:01:07;;;;;;;3.22;0.77;;;21.10;94.90;;;;;;5068581;28;20600;-67
2022/09/04 09:04:10;;;;;;;1.83;0.82;;;21.40;94.20;;;;;;5080662;28;20134;-68
2022/09/04 09:07:08;;;;;;;2.17;0.70;;;21.70;92.20;;;;;;5073347;28;20056;-67
2022/09/04 09:10:03;;;;;;;3.03;0.80;;;21.90;91.60;;;;;;5069392;28;20367;-68
2022/09/04 09:12:56;;;;;;;2.00;0.90;;;22.30;91.20;;;;;;5078968;28;20126;-68
2022/09/04 09:15:34;;;;;;;3.05;0.93;;;22.40;88.10;;;;;;5088787;28;20096;-69
2022/09/04 09:18:18;;;;;;;4.68;1.30;;;22.40;89.40;;;;;;5079853;28;20722;-68
2022/09/04 09:20:55;;;;;;;5.95;0.90;;;22.20;90.00;;;;;;5073582;28;20075;-69
2022/09/04 09:23:37;;;;;;;2.53;0.80;;;22.30;90.70;;;;;;5088574;28;20043;-67
2022/09/04 09:26:25;;;;;;;2.47;0.70;;;22.70;86.60;;;;;;5092207;28;20061;-68
2022/09/04 09:29:16;;;;;;;4.20;1.17;;;22.60;89.10;;;;;;5072833;28;20095;-69
2022/09/04 09:32:06;;;;;;;3.42;1.00;;;22.50;89.60;;;;;;5072969;28;20477;-70
2022/09/04 09:35:10;;;;;;;4.53;1.23;;;22.40;90.60;;;;;;5083848;28;20062;-68
2022/09/04 09:37:59;;;;;;;4.93;1.10;;;22.90;86.70;;;;;;5090273;28;20181;-69
2022/09/04 09:40:54;;;;;;;3.20;0.90;;;23.00;89.00;;;;;;5091960;28;20047;-68
2022/09/04 09:44:05;;;;;;;2.53;1.13;;;23.10;85.60;;;;;;5077828;28;20050;-71
2022/09/04 09:47:00;;;;;;;2.00;0.90;;;23.20;85.00;;;;;;5072279;28;20499;-68
2022/09/04 09:49:57;;;;;;;2.70;1.02;;;23.30;82.80;;;;;;5085935;28;20356;-69
2022/09/04 09:52:52;;;;;;;4.25;0.93;;;23.50;79.80;;;;;;5079729;28;20132;-70
2022/09/04 09:55:36;;;;;;;3.53;0.90;;;23.70;81.20;;;;;;5092380;28;20051;-69
2022/09/04 09:58:23;;;;;;;3.10;0.90;;;23.80;82.10;;;;;;5077351;28;20043;-71
2022/09/04 10:00:58;;;;;;;5.07;1.20;;;23.80;82.00;;;;;;5081889;28;20063;-68
2022/09/04 10:03:46;;;;;;;3.88;1.13;;;24.10;78.60;;;;;;5092401;28;20097;-69
2022/09/04 10:06:34;;;;;;;2.58;0.80;;;24.40;80.20;;;;;;5090968;28;20595;-68
2022/09/04 10:09:23;;;;;;;4.10;1.10;;;24.50;81.10;;;;;;5086121;28;20116;-69
2022/09/04 10:12:09;;;;;;;3.97;0.90;;;24.70;75.50;;;;;;5069824;28;20047;-72
2022/09/04 10:14:56;;;;;;;3.90;1.00;;;24.80;73.20;;;;;;5080251;28;20274;-71
2022/09/04 10:17:21;;;;;;;6.55;1.10;;;24.70;74.90;;;;;;5072110;28;20548;-70
2022/09/04 10:20:15;;;;;;;3.05;0.80;;;24.90;74.10;;;;;;5071771;28;20052;-71
2022/09/04 10:23:06;;;;;;;4.13;0.95;;;25.00;70.80;;;;;;5071357;28;20496;-69
2022/09/04 10:25:45;;;;;;;4.47;0.95;;;25.20;70.90;;;;;;5072654;28;21085;-68
2022/09/04 10:28:10;;;;;;;3.72;0.90;;;25.30;68.30;;;;;;5075498;28;20155;-71
2022/09/04 10:31:01;;;;;;;2.45;0.90;;;25.50;70.20;;;;;;5092823;28;20055;-69
2022/09/04 10:33:42;;;;;;;5.72;1.10;;;25.60;67.50;;;;;;5093960;28;20535;-69
2022/09/04 10:36:51;;;;;;;2.45;0.82;;;25.40;66.60;;;;;;5092743;28;20082;-70
2022/09/04 10:42:38;;;;;;;4.55;0.80;;;25.70;63.70;;;;;;5092082;28;20640;-68
2022/09/04 10:45:16;;;;;;;3.92;1.02;;;25.80;64.40;;;;;;5092294;28;20128;-70
2022/09/04 10:48:16;;;;;;;1.80;0.80;;;25.60;63.10;;;;;;5092144;28;20048;-69
2022/09/04 10:51:19;;;;;;;3.70;0.80;;;25.80;62.90;;;;;;5068372;28;20067;-69
2022/09/04 10:53:51;;;;;;;;;;;25.90;62.50;;;;;;5074321;28;20083;-68
2022/09/04 10:56:20;;;;;;;3.72;0.82;;;25.60;65.10;;;;;;5074755;28;19924;-68
2022/09/04 10:59:23;;;;;;;1.88;0.80;;;26.30;62.80;;;;;;5074380;28;20048;-69
2022/09/04 11:02:08;;;;;;;3.20;1.10;;;26.50;58.80;;;;;;5073878;28;20067;-69
2022/09/04 11:04:45;;;;;;;3.40;0.70;;;26.40;59.90;;;;;;5072837;28;20112;-68
2022/09/04 11:07:39;;;;;;;4.25;0.90;;;26.80;59.70;;;;;;5086722;28;20723;-68
2022/09/04 11:10:53;;;;;;;1.70;0.70;;;27.00;57.50;;;;;;5083704;28;20502;-71
2022/09/04 11:13:37;;;;;;;;;;;27.10;56.90;;;;;;5059442;28;20086;-70
2022/09/04 11:16:22;;;;;;;2.22;0.75;;;26.80;57.60;;;;;;5071298;28;20367;-69
2022/09/04 11:19:25;;;;;;;3.78;0.70;;;26.80;57.10;;;;;;5071780;28;20324;-71
2022/09/04 11:22:11;;;;;;;3.33;0.88;;;27.00;57.50;;;;;;5089953;28;20047;-70
2022/09/04 11:25:03;;;;;;;2.42;0.60;;;26.70;56.70;;;;;;5072011;28;20679;-69
2022/09/04 11:28:02;;;;;;;5.10;1.15;;;26.90;57.90;;;;;;5085838;28;20052;-68
2022/09/04 11:30:54;;;;;;;2.00;0.70;;;26.90;60.40;;;;;;5074056;28;20054;-70
2022/09/04 11:33:32;;;;;;;3.20;1.10;;;27.20;56.50;;;;;;5059093;28;20063;-70
2022/09/04 11:36:12;;;;;;;2.65;0.68;;;27.00;57.50;;;;;;5085850;28;20624;-69
2022/09/04 11:38:53;;;;;;;2.92;0.60;;;27.50;59.70;;;;;;5074064;28;20141;-67
2022/09/04 11:41:53;;;;;;;4.30;0.70;;;27.70;58.40;;;;;;5075613;28;20050;-69
2022/09/04 11:44:59;;;;;;;2.25;0.60;;;27.70;57.40;;;;;;5090232;28;20836;-68
2022/09/04 11:47:46;;;;;;;4.32;0.60;;;28.00;56.40;;;;;;5085933;28;20418;-71
2022/09/04 11:50:27;;;;;;;1.95;0.60;;;28.10;56.00;;;;;;5080902;28;20044;-68
2022/09/04 11:53:23;;;;;;;2.38;0.60;;;28.20;51.80;;;;;;5070407;28;20040;-71
2022/09/04 11:56:15;;;;;;;2.65;0.50;;;28.10;51.50;;;;;;5089819;28;20059;-69
2022/09/04 11:59:07;;;;;;;3.15;0.60;;;28.20;52.30;;;;;;5090104;28;20701;-69
2022/09/04 12:01:55;;;;;;;2.05;0.80;;;28.40;52.10;;;;;;5090083;28;20140;-67
2022/09/04 12:04:41;;;;;;;3.65;0.68;;;28.50;50.40;;;;;;5089432;28;20048;-71
2022/09/04 12:07:36;;;;;;;4.70;0.50;;;28.90;47.70;;;;;;5070221;28;20051;-69
2022/09/04 12:10:37;;;;;;;1.60;0.57;;;28.80;50.10;;;;;;5070500;28;20056;-69
2022/09/04 12:13:22;;;;;;;1.50;0.40;;;28.50;49.30;;;;;;5071052;28;20621;-69
2022/09/04 12:16:05;;;;;;;1.40;0.40;;;28.60;48.00;;;;;;5089198;28;20052;-70
2022/09/04 12:18:57;;;;;;;3.08;0.40;;;28.50;47.60;;;;;;5092806;28;20053;-69
2022/09/04 12:21:50;;;;;;;3.35;0.68;;;28.50;47.90;;;;;;5075252;28;20509;-70
2022/09/04 12:24:38;;;;;;;2.83;0.40;;;28.60;49.20;;;;;;5071909;28;20097;-69
2022/09/04 12:27:23;;;;;;;2.08;0.50;;;28.90;46.80;;;;;;5067136;28;20059;-67
2022/09/04 12:30:40;;;;;;;1.83;0.50;;;28.90;47.20;;;;;;5070910;28;20048;-70
2022/09/04 12:33:30;;;;;;;2.85;0.50;;;28.90;46.80;;;;;;5057421;28;20059;-70
2022/09/04 12:36:16;;;;;;;1.40;0.40;;;28.50;47.70;;;;;;5069996;28;20059;-68
2022/09/04 12:38:46;;;;;;;2.15;0.40;;;28.40;48.90;;;;;;5070582;28;20055;-70
2022/09/04 12:41:28;;;;;;;1.27;0.50;;;28.20;50.60;;;;;;5069583;28;20679;-69
2022/09/04 12:44:10;;;;;;;1.33;0.50;;;28.40;50.10;;;;;;5069952;28;20706;-69
2022/09/04 12:47:10;;;;;;;2.80;0.60;;;28.20;48.80;;;;;;5073130;28;20543;-70
2022/09/04 12:50:04;;;;;;;3.10;0.52;;;28.20;48.00;;;;;;5079876;28;20058;-69
2022/09/04 12:53:03;;;;;;;2.95;0.57;;;28.20;52.60;;;;;;5069601;28;20050;-70
2022/09/04 12:55:44;;;;;;;1.70;0.50;;;28.40;50.60;;;;;;5069402;28;21037;-69
2022/09/04 12:58:30;;;;;;;2.63;0.60;;;28.50;47.40;;;;;;5069676;28;21001;-71
2022/09/04 13:01:07;;;;;;;4.93;0.40;;;28.30;50.20;;;;;;5069417;28;20582;-70
2022/09/04 13:03:58;;;;;;;2.10;0.50;;;28.20;47.00;;;;;;5071490;28;20472;-69
2022/09/04 13:06:33;;;;;;;2.50;0.45;;;28.30;47.60;;;;;;5072228;28;20123;-69
2022/09/04 13:09:21;;;;;;;2.03;0.40;;;28.30;45.30;;;;;;5071557;28;20479;-69
2022/09/04 13:12:09;;;;;;;2.58;0.50;;;28.40;45.50;;;;;;5069925;28;20665;-69
2022/09/04 13:14:57;;;;;;;2.45;0.50;;;28.20;48.50;;;;;;5069644;28;20044;-69
2022/09/04 13:17:51;;;;;;;3.30;0.63;;;28.50;47.30;;;;;;5068831;28;20052;-69
2022/09/04 13:20:21;;;;;;;3.50;0.52;;;28.60;46.80;;;;;;5069477;28;20323;-67
2022/09/04 13:23:23;;;;;;;0.93;0.40;;;28.80;44.80;;;;;;5069753;28;20083;-69
2022/09/04 13:26:02;;;;;;;2.35;0.40;;;28.70;45.40;;;;;;5088079;28;20446;-69
2022/09/04 13:28:44;;;;;;;1.67;0.52;;;28.90;47.30;;;;;;5087433;28;20119;-68
2022/09/04 13:31:18;;;;;;;2.20;0.40;;;29.30;42.80;;;;;;5087437;28;20493;-70
2022/09/04 13:34:08;;;;;;;1.83;0.50;;;29.30;42.40;;;;;;5087931;28;20047;-68
2022/09/04 13:36:42;;;;;;;4.07;0.50;;;29.10;42.20;;;;;;5090109;28;20418;-69
2022/09/04 13:39:39;;;;;;;1.88;0.50;;;29.10;41.40;;;;;;5088883;28;20051;-69
2022/09/04 13:42:25;;;;;;;7.03;0.50;;;28.90;41.10;;;;;;5080521;28;20495;-69
2022/09/04 13:45:22;;;;;;;0.85;0.40;;;29.20;42.50;;;;;;5064454;28;20404;-69
2022/09/04 13:48:05;;;;;;;1.50;0.30;;;29.30;40.30;;;;;;5067594;28;20056;-68
2022/09/04 13:50:33;;;;;;;2.72;0.40;;;29.20;38.60;;;;;;5068612;28;20048;-69
2022/09/04 13:53:16;;;;;;;1.85;0.50;;;29.30;40.20;;;;;;5075353;28;20043;-69
2022/09/04 13:55:53;;;;;;;2.78;0.40;;;29.40;41.00;;;;;;5086799;28;20665;-67
2022/09/04 13:58:43;;;;;;;1.60;0.40;;;29.20;39.10;;;;;;5064109;28;20043;-69
2022/09/04 14:01:14;;;;;;;2.97;0.50;;;29.10;41.20;;;;;;5087743;28;20460;-68
2022/09/04 14:04:05;;;;;;;1.60;0.50;;;29.40;39.80;;;;;;5091465;28;20059;-69
2022/09/04 14:06:32;;;;;;;2.33;0.50;;;29.20;38.60;;;;;;5095272;28;20498;-69
2022/09/04 14:09:01;;;;;;;2.15;0.68;;;29.20;38.80;;;;;;5095242;28;20043;-68
2022/09/04 14:11:56;;;;;;;2.63;0.50;;;29.10;39.30;;;;;;5094950;28;20070;-68
2022/09/04 14:14:58;;;;;;;2.67;0.70;;;28.90;39.10;;;;;;5090974;28;20306;-70
2022/09/04 14:17:36;;;;;;;2.42;0.60;;;28.70;40.60;;;;;;5072596;28;20051;-68
2022/09/04 14:20:15;;;;;;;1.98;0.40;;;28.50;41.50;;;;;;5073220;28;20059;-67
2022/09/04 14:22:57;;;;;;;2.72;0.80;;;28.50;41.40;;;;;;5073206;28;20055;-68
2022/09/04 14:25:47;;;;;;;3.13;0.50;;;28.40;41.90;;;;;;5072838;28;20118;-70